createdAt,value
2018-12-13T00:01:13.850Z,37.07
2018-12-13T00:03:42.923Z,37.97
2018-12-13T00:06:12.056Z,39.43
2018-12-13T00:08:41.238Z,38.30
2018-12-13T00:11:10.306Z,36.27
2018-12-13T00:13:39.385Z,33.33
2018-12-13T00:16:08.507Z,35.10
2018-12-13T00:18:38.451Z,41.63
2018-12-13T00:21:07.533Z,47.33
2018-12-13T00:23:37.367Z,44.50
2018-12-13T00:26:06.549Z,41.17
2018-12-13T00:28:35.785Z,34.70
2018-12-13T00:31:04.915Z,33.93
2018-12-13T00:33:34.079Z,33.93
2018-12-13T00:36:03.465Z,37.30
2018-12-13T00:38:32.620Z,35.73
2018-12-13T00:41:01.675Z,32.87
2018-12-13T00:43:32.343Z,30.47
2018-12-13T00:46:01.479Z,31.70
2018-12-13T00:48:30.602Z,33.40
2018-12-13T00:50:59.692Z,35.70
2018-12-13T00:53:28.722Z,34.13
2018-12-13T00:55:57.783Z,37.93
2018-12-13T00:58:26.870Z,34.63
2018-12-13T01:01:00.403Z,35.43
2018-12-13T01:03:30.239Z,38.30
2018-12-13T01:05:59.583Z,35.30
2018-12-13T01:08:28.750Z,37.73
2018-12-13T01:10:57.871Z,35.00
2018-12-13T01:13:26.909Z,32.83
2018-12-13T01:15:55.945Z,33.20
2018-12-13T01:18:24.989Z,35.33
2018-12-13T01:20:54.892Z,34.90
2018-12-13T01:23:24.104Z,33.83
2018-12-13T01:25:53.210Z,38.87
2018-12-13T01:28:23.063Z,37.47
2018-12-13T01:30:53.177Z,33.37
2018-12-13T01:33:22.249Z,32.07
2018-12-13T01:35:51.328Z,30.70
2018-12-13T01:38:20.980Z,30.47
2018-12-13T01:40:50.238Z,30.70
2018-12-13T01:43:19.299Z,36.57
2018-12-13T01:45:48.369Z,38.63
2018-12-13T01:48:18.238Z,33.40
2018-12-13T01:50:47.436Z,33.27
2018-12-13T01:53:17.046Z,34.63
2018-12-13T01:55:46.098Z,38.53
2018-12-13T01:58:15.207Z,34.10
2018-12-13T02:00:44.434Z,38.70
2018-12-13T02:03:13.514Z,36.23
2018-12-13T02:05:42.609Z,34.70
2018-12-13T02:08:11.676Z,35.80
2018-12-13T02:10:40.839Z,33.73
2018-12-13T02:13:10.249Z,41.17
2018-12-13T02:15:39.662Z,39.27
2018-12-13T02:18:09.053Z,39.93
2018-12-13T02:20:38.181Z,41.10
2018-12-13T02:23:07.596Z,35.47
2018-12-13T02:25:36.665Z,37.00
2018-12-13T02:28:05.954Z,39.50
2018-12-13T02:30:35.018Z,37.03
2018-12-13T02:33:04.233Z,33.30
2018-12-13T02:35:33.476Z,38.13
2018-12-13T02:38:03.788Z,39.87
2018-12-13T02:40:33.021Z,36.03
2018-12-13T02:43:02.095Z,35.00
2018-12-13T02:45:31.476Z,34.00
2018-12-13T02:48:00.611Z,35.83
2018-12-13T02:50:29.816Z,35.07
2018-12-13T02:52:59.063Z,32.60
2018-12-13T02:55:28.204Z,35.30
2018-12-13T02:57:57.991Z,31.13
2018-12-13T03:00:27.171Z,34.30
2018-12-13T03:02:56.255Z,38.37
2018-12-13T03:05:25.390Z,40.90
2018-12-13T03:07:54.683Z,39.43
2018-12-13T03:10:23.855Z,38.70
2018-12-13T03:12:53.125Z,35.60
2018-12-13T03:15:23.029Z,38.83
2018-12-13T03:17:52.409Z,38.90
2018-12-13T03:20:21.535Z,37.40
2018-12-13T03:22:50.631Z,35.23
2018-12-13T03:25:19.986Z,34.70
2018-12-13T03:27:49.202Z,39.63
2018-12-13T03:30:18.301Z,36.07
2018-12-13T03:32:47.534Z,38.30
2018-12-13T03:35:16.590Z,33.03
2018-12-13T03:37:45.737Z,35.63
2018-12-13T03:40:14.818Z,30.97
2018-12-13T03:42:44.149Z,35.33
2018-12-13T03:45:13.212Z,30.60
2018-12-13T03:47:42.915Z,32.27
2018-12-13T03:50:12.136Z,35.23
2018-12-13T03:52:41.245Z,38.80
2018-12-13T03:55:10.315Z,37.97
2018-12-13T03:57:39.390Z,41.90
2018-12-13T04:00:08.769Z,36.43
2018-12-13T04:02:37.836Z,36.47
2018-12-13T04:05:07.158Z,37.83
2018-12-13T04:07:36.213Z,41.17
2018-12-13T04:10:05.587Z,37.33
2018-12-13T04:12:34.620Z,34.87
2018-12-13T04:15:04.563Z,40.37
2018-12-13T04:17:33.754Z,37.67
2018-12-13T04:20:03.085Z,38.43
2018-12-13T04:22:32.415Z,36.83
2018-12-13T04:25:01.486Z,37.27
2018-12-13T04:27:30.521Z,36.13
2018-12-13T04:29:59.661Z,37.83
2018-12-13T04:32:28.876Z,33.37
2018-12-13T04:34:58.209Z,30.23
2018-12-13T04:37:34.983Z,31.97
2018-12-13T04:39:58.605Z,35.20
2018-12-13T04:42:28.283Z,34.03
2018-12-13T04:44:57.877Z,32.87
2018-12-13T04:47:26.954Z,36.23
2018-12-13T04:52:30.527Z,34.80
2018-12-13T04:54:59.948Z,38.77
2018-12-13T04:57:29.003Z,34.70
2018-12-13T04:59:58.099Z,33.83
2018-12-13T05:02:27.156Z,36.03
2018-12-13T05:04:56.322Z,39.33
2018-12-13T05:07:25.585Z,38.60
2018-12-13T05:09:54.723Z,38.90
2018-12-13T05:12:24.501Z,35.93
2018-12-13T05:14:53.763Z,38.37
2018-12-13T05:17:23.538Z,39.67
2018-12-13T05:19:52.849Z,41.93
2018-12-13T05:22:21.847Z,38.70
2018-12-13T05:24:51.506Z,36.70
2018-12-13T05:27:20.579Z,42.93
2018-12-13T05:29:49.802Z,37.70
2018-12-13T05:32:18.997Z,45.80
2018-12-13T05:34:48.042Z,40.97
2018-12-13T05:37:17.085Z,39.93
2018-12-13T05:39:46.154Z,40.50
2018-12-13T05:42:15.264Z,38.47
2018-12-13T05:44:44.449Z,42.73
2018-12-13T05:47:13.520Z,42.80
2018-12-13T05:49:42.620Z,41.50
2018-12-13T05:52:11.672Z,40.50
2018-12-13T05:54:40.802Z,40.40
2018-12-13T05:57:09.859Z,48.43
2018-12-13T05:59:38.928Z,46.10
2018-12-13T06:02:08.122Z,43.87
2018-12-13T06:04:37.263Z,45.53
2018-12-13T06:07:06.630Z,53.67
2018-12-13T06:09:35.716Z,51.17
2018-12-13T06:12:05.090Z,48.27
2018-12-13T06:14:34.164Z,41.87
2018-12-13T06:17:03.264Z,45.23
2018-12-13T06:19:32.362Z,46.20
2018-12-13T06:22:01.888Z,46.80
2018-12-13T06:24:31.140Z,45.50
2018-12-13T06:27:00.197Z,43.10
2018-12-13T06:29:29.303Z,41.47
2018-12-13T06:31:58.450Z,42.97
2018-12-13T06:34:28.237Z,48.23
2018-12-13T06:36:57.591Z,67.23
2018-12-13T06:39:26.622Z,63.33
2018-12-13T06:41:55.679Z,50.00
2018-12-13T06:44:24.839Z,45.17
2018-12-13T06:46:54.200Z,46.23
2018-12-13T06:49:23.282Z,54.07
2018-12-13T06:51:52.561Z,48.07
2018-12-13T06:54:21.679Z,50.30
2018-12-13T06:56:50.775Z,55.63
2018-12-13T06:59:19.842Z,44.70
2018-12-13T07:01:48.915Z,45.20
2018-12-13T07:04:18.003Z,41.93
2018-12-13T07:06:47.390Z,40.17
2018-12-13T07:09:16.424Z,40.57
2018-12-13T07:11:45.747Z,46.17
2018-12-13T07:14:14.785Z,48.17
2018-12-13T07:16:43.829Z,43.70
2018-12-13T07:19:13.101Z,44.90
2018-12-13T07:21:42.207Z,41.87
2018-12-13T07:24:11.426Z,40.63
2018-12-13T07:26:40.729Z,43.80
2018-12-13T07:29:10.311Z,44.33
2018-12-13T07:31:39.465Z,79.53
2018-12-13T07:34:09.094Z,60.83
2018-12-13T07:36:38.220Z,61.53
2018-12-13T07:39:09.598Z,144.73
2018-12-13T07:41:38.669Z,208.70
2018-12-13T07:44:07.740Z,109.73
2018-12-13T07:46:36.871Z,51.47
2018-12-13T07:49:05.942Z,55.07
2018-12-13T07:51:34.989Z,57.07
2018-12-13T07:54:04.644Z,60.23
2018-12-13T07:56:33.699Z,61.30
2018-12-13T07:59:09.762Z,58.43
2018-12-13T08:01:38.979Z,56.37
2018-12-13T08:04:08.560Z,56.93
2018-12-13T08:06:37.648Z,65.53
2018-12-13T08:09:09.454Z,62.10
2018-12-13T08:11:38.632Z,60.53
2018-12-13T08:14:07.941Z,56.97
2018-12-13T08:16:37.448Z,51.23
2018-12-13T08:19:06.509Z,55.17
2018-12-13T08:21:35.726Z,59.23
2018-12-13T08:24:05.412Z,65.20
2018-12-13T08:26:34.572Z,58.53
2018-12-13T08:29:03.973Z,57.70
2018-12-13T08:31:33.067Z,61.90
2018-12-13T08:34:02.185Z,53.00
2018-12-13T08:36:31.349Z,61.53
2018-12-13T08:39:00.598Z,54.97
2018-12-13T08:41:29.740Z,54.90
2018-12-13T08:43:59.712Z,61.57
2018-12-13T08:46:28.974Z,63.03
2018-12-13T08:48:58.254Z,60.50
2018-12-13T08:51:27.319Z,55.07
2018-12-13T08:53:56.542Z,55.73
2018-12-13T08:56:25.688Z,53.43
2018-12-13T08:58:55.065Z,54.67
2018-12-13T09:01:24.264Z,56.83
2018-12-13T09:03:53.580Z,61.40
2018-12-13T09:06:22.910Z,67.33
2018-12-13T09:08:51.992Z,56.83
2018-12-13T09:11:21.091Z,55.47
2018-12-13T09:13:50.475Z,67.07
2018-12-13T09:16:19.534Z,55.90
2018-12-13T09:18:48.795Z,53.27
2018-12-13T09:21:18.476Z,56.33
2018-12-13T09:23:47.554Z,61.33
2018-12-13T09:26:16.681Z,59.73
2018-12-13T09:28:45.777Z,52.63
2018-12-13T09:31:14.955Z,56.53
2018-12-13T09:33:44.122Z,53.60
2018-12-13T09:36:13.453Z,51.93
2018-12-13T09:38:42.516Z,56.07
2018-12-13T09:41:12.787Z,55.00
2018-12-13T09:43:42.531Z,55.63
2018-12-13T09:46:11.621Z,57.37
2018-12-13T09:48:40.831Z,51.97
2018-12-13T09:51:09.939Z,52.00
2018-12-13T09:53:39.013Z,51.30
2018-12-13T09:56:08.153Z,48.90
2018-12-13T09:58:37.326Z,44.73
2018-12-13T10:01:07.158Z,42.53
2018-12-13T10:03:36.234Z,40.10
2018-12-13T10:06:05.395Z,37.80
2018-12-13T10:08:34.452Z,37.87
2018-12-13T10:11:03.749Z,36.60
2018-12-13T10:13:33.087Z,35.87
2018-12-13T10:16:02.318Z,35.87
2018-12-13T10:18:31.376Z,32.47
2018-12-13T10:21:00.440Z,33.03
2018-12-13T10:23:32.318Z,28.97
2018-12-13T10:26:01.367Z,29.97
2018-12-13T10:28:30.446Z,31.50
2018-12-13T10:30:59.859Z,29.03
2018-12-13T10:33:29.363Z,26.60
2018-12-13T10:35:58.734Z,27.97
2018-12-13T10:38:27.887Z,23.63
2018-12-13T10:40:57.096Z,23.70
2018-12-13T10:43:26.227Z,23.90
2018-12-13T10:45:55.504Z,23.30
2018-12-13T10:48:25.140Z,20.80
2018-12-13T10:50:54.417Z,19.03
2018-12-13T10:53:23.479Z,20.20
2018-12-13T10:55:52.984Z,22.47
2018-12-13T10:58:22.025Z,19.10
2018-12-13T11:00:56.577Z,20.53
2018-12-13T11:03:31.096Z,17.90
2018-12-13T11:06:00.868Z,20.13
2018-12-13T11:08:29.900Z,19.20
2018-12-13T11:10:59.144Z,20.00
2018-12-13T11:13:28.221Z,18.57
2018-12-13T11:15:57.444Z,21.17
2018-12-13T11:18:26.534Z,19.07
2018-12-13T11:20:55.876Z,19.83
2018-12-13T11:23:24.948Z,21.40
2018-12-13T11:25:54.133Z,19.40
2018-12-13T11:29:38.297Z,21.20
2018-12-13T11:32:07.472Z,21.97
2018-12-13T11:34:36.539Z,18.53
2018-12-13T11:37:05.593Z,18.83
2018-12-13T11:39:34.691Z,21.13
2018-12-13T11:42:03.893Z,17.83
2018-12-13T11:44:33.221Z,19.87
2018-12-13T11:47:02.291Z,16.53
2018-12-13T11:49:31.577Z,21.67
2018-12-13T11:52:01.587Z,17.27
2018-12-13T11:54:39.751Z,16.63
2018-12-13T11:57:09.388Z,17.87
2018-12-13T11:59:40.329Z,15.97
2018-12-13T12:02:13.153Z,17.33
2018-12-13T12:04:42.197Z,17.93
2018-12-13T12:07:11.299Z,16.67
2018-12-13T12:09:40.353Z,24.27
2018-12-13T12:12:09.508Z,16.30
2018-12-13T12:14:38.594Z,15.80
2018-12-13T12:17:09.596Z,15.43
2018-12-13T12:19:38.756Z,14.40
2018-12-13T12:22:08.009Z,15.03
2018-12-13T12:24:37.317Z,16.97
2018-12-13T12:27:06.589Z,15.37
2018-12-13T12:29:35.639Z,16.10
2018-12-13T12:32:04.853Z,16.37
2018-12-13T12:34:33.913Z,15.97
2018-12-13T12:37:03.308Z,17.00
2018-12-13T12:39:32.383Z,16.67
2018-12-13T12:42:02.092Z,17.00
2018-12-13T12:44:35.057Z,20.67
2018-12-13T12:47:04.229Z,18.63
2018-12-13T12:49:33.349Z,15.17
2018-12-13T12:52:03.358Z,15.13
2018-12-13T12:54:32.495Z,15.77
2018-12-13T12:57:01.867Z,15.57
2018-12-13T12:59:31.614Z,13.43
2018-12-13T13:02:00.739Z,14.87
2018-12-13T13:04:30.180Z,14.07
2018-12-13T13:06:59.221Z,15.20
2018-12-13T13:09:28.682Z,15.40
2018-12-13T13:11:57.857Z,14.57
2018-12-13T13:14:27.000Z,15.23
2018-12-13T13:16:56.731Z,13.90
2018-12-13T13:19:26.702Z,16.20
2018-12-13T13:21:55.995Z,15.73
2018-12-13T13:24:25.533Z,15.23
2018-12-13T13:26:55.141Z,14.23
2018-12-13T13:29:24.357Z,12.57
2018-12-13T13:31:53.488Z,12.40
2018-12-13T13:34:22.687Z,14.37
2018-12-13T13:36:51.857Z,14.20
2018-12-13T13:39:20.913Z,13.07
2018-12-13T13:41:50.078Z,12.80
2018-12-13T13:44:19.592Z,14.53
2018-12-13T13:46:48.905Z,12.97
2018-12-13T13:49:18.138Z,13.33
2018-12-13T13:51:47.313Z,14.77
2018-12-13T13:54:16.575Z,14.37
2018-12-13T13:56:45.722Z,16.70
2018-12-13T13:59:15.202Z,15.20
2018-12-13T14:01:44.580Z,18.10
2018-12-13T14:04:13.750Z,14.43
2018-12-13T14:06:43.060Z,14.27
2018-12-13T14:09:12.249Z,14.27
2018-12-13T14:11:41.325Z,14.30
2018-12-13T14:14:10.583Z,15.40
2018-12-13T14:16:41.285Z,14.23
2018-12-13T14:19:10.377Z,13.43
2018-12-13T14:21:40.445Z,14.70
2018-12-13T14:24:09.536Z,14.07
2018-12-13T14:26:38.766Z,15.00
2018-12-13T14:29:08.620Z,15.10
2018-12-13T14:31:37.715Z,17.80
2018-12-13T14:34:07.016Z,15.47
2018-12-13T14:36:36.115Z,16.17
2018-12-13T14:39:08.059Z,18.13
2018-12-13T14:41:37.877Z,15.43
2018-12-13T14:44:07.096Z,16.50
2018-12-13T14:46:36.391Z,16.27
2018-12-13T14:49:05.719Z,16.47
2018-12-13T14:51:34.778Z,18.90
2018-12-13T14:54:04.089Z,18.00
2018-12-13T14:56:33.242Z,19.17
2018-12-13T14:59:02.485Z,16.13
2018-12-13T15:01:31.695Z,16.50
2018-12-13T15:04:00.962Z,16.33
2018-12-13T15:06:30.132Z,19.00
2018-12-13T15:08:59.813Z,18.83
2018-12-13T15:11:28.918Z,17.23
2018-12-13T15:13:58.143Z,16.27
2018-12-13T15:16:27.977Z,17.57
2018-12-13T15:18:58.167Z,17.77
2018-12-13T15:21:27.434Z,19.57
2018-12-13T15:23:56.748Z,17.67
2018-12-13T15:26:26.567Z,17.67
2018-12-13T15:28:55.830Z,18.23
2018-12-13T15:31:25.026Z,17.33
2018-12-13T15:33:54.319Z,19.03
2018-12-13T15:36:23.411Z,22.80
2018-12-13T15:38:53.103Z,18.67
2018-12-13T15:41:22.222Z,16.53
2018-12-13T15:43:51.490Z,19.17
2018-12-13T15:46:20.609Z,20.20
2018-12-13T15:48:51.014Z,19.90
2018-12-13T15:51:20.088Z,20.33
2018-12-13T15:53:49.329Z,18.70
2018-12-13T15:56:18.476Z,20.43
2018-12-13T15:58:48.848Z,19.10
2018-12-13T16:01:17.968Z,21.90
2018-12-13T16:03:47.989Z,20.47
2018-12-13T16:06:17.074Z,19.83
2018-12-13T16:08:46.369Z,20.63
2018-12-13T16:11:15.464Z,17.03
2018-12-13T16:13:44.781Z,17.90
2018-12-13T16:16:13.855Z,18.13
2018-12-13T16:18:43.438Z,19.20
2018-12-13T16:21:12.791Z,19.60
2018-12-13T16:23:41.874Z,18.37
2018-12-13T16:26:11.241Z,19.27
2018-12-13T16:28:40.377Z,19.87
2018-12-13T16:31:10.184Z,18.67
2018-12-13T16:33:39.415Z,18.13
2018-12-13T16:36:09.093Z,18.00
2018-12-13T16:38:38.189Z,18.13
2018-12-13T16:41:07.626Z,18.33
2018-12-13T16:43:36.749Z,19.77
2018-12-13T16:46:05.849Z,19.63
2018-12-13T16:48:35.901Z,26.27
2018-12-13T16:51:05.064Z,21.73
2018-12-13T16:53:34.729Z,21.90
2018-12-13T16:56:03.854Z,23.20
2018-12-13T16:58:33.033Z,26.83
2018-12-13T17:01:02.135Z,22.13
2018-12-13T17:03:40.629Z,21.43
2018-12-13T17:06:09.884Z,22.90
2018-12-13T17:08:39.019Z,23.93
2018-12-13T17:11:08.511Z,22.90
2018-12-13T17:13:38.239Z,25.77
2018-12-13T17:16:08.290Z,24.30
2018-12-13T17:18:37.364Z,27.77
2018-12-13T17:21:06.471Z,30.47
2018-12-13T17:23:35.716Z,27.80
2018-12-13T17:26:04.938Z,24.40
2018-12-13T17:28:34.145Z,24.33
2018-12-13T17:31:03.603Z,27.47
2018-12-13T17:33:32.837Z,27.67
2018-12-13T17:36:03.091Z,23.57
2018-12-13T17:38:32.608Z,33.83
2018-12-13T17:41:01.705Z,35.90
2018-12-13T17:43:30.950Z,30.70
2018-12-13T17:46:00.035Z,30.03
2018-12-13T17:48:29.215Z,25.60
2018-12-13T17:50:58.376Z,25.27
2018-12-13T17:53:27.451Z,26.83
2018-12-13T17:55:56.514Z,25.60
2018-12-13T17:58:25.756Z,26.27
2018-12-13T18:00:54.887Z,29.03
2018-12-13T18:03:24.300Z,27.17
2018-12-13T18:05:53.453Z,26.77
2018-12-13T18:08:22.757Z,25.70
2018-12-13T18:10:51.942Z,29.03
2018-12-13T18:13:21.059Z,24.70
2018-12-13T18:15:50.367Z,27.03
2018-12-13T18:18:19.972Z,25.17
2018-12-13T18:20:49.219Z,25.10
2018-12-13T18:23:18.378Z,27.10
2018-12-13T18:25:47.623Z,26.50
2018-12-13T18:28:16.770Z,27.33
2018-12-13T18:30:45.986Z,27.03
2018-12-13T18:33:15.125Z,28.73
2018-12-13T18:35:44.525Z,27.87
2018-12-13T18:38:13.650Z,32.87
2018-12-13T18:40:42.985Z,26.63
2018-12-13T18:43:12.174Z,28.63
2018-12-13T18:45:41.395Z,29.80
2018-12-13T18:48:10.988Z,29.17
2018-12-13T18:50:40.913Z,29.73
2018-12-13T18:53:10.024Z,30.87
2018-12-13T18:55:39.692Z,32.77
2018-12-13T18:58:08.865Z,31.17
2018-12-13T19:00:38.003Z,29.50
2018-12-13T19:03:07.135Z,30.80
2018-12-13T19:05:36.251Z,30.63
2018-12-13T19:08:05.394Z,32.13
2018-12-13T19:10:34.659Z,30.57
2018-12-13T19:13:04.035Z,32.67
2018-12-13T19:15:33.140Z,34.70
2018-12-13T19:18:02.231Z,33.00
2018-12-13T19:20:31.478Z,31.93
2018-12-13T19:23:00.740Z,32.03
2018-12-13T19:25:29.867Z,34.87
2018-12-13T19:27:59.804Z,37.47
2018-12-13T19:30:29.065Z,34.27
2018-12-13T19:32:58.258Z,31.00
2018-12-13T19:35:27.854Z,32.13
2018-12-13T19:37:57.975Z,47.33
2018-12-13T19:40:27.242Z,63.10
2018-12-13T19:42:56.558Z,74.37
2018-12-13T19:45:25.753Z,53.93
2018-12-13T19:47:54.851Z,46.63
2018-12-13T19:50:23.978Z,33.80
2018-12-13T19:52:53.350Z,33.70
2018-12-13T19:55:22.482Z,28.57
2018-12-13T19:57:51.550Z,32.17
2018-12-13T20:00:20.666Z,28.53
2018-12-13T20:02:49.869Z,34.00
2018-12-13T20:05:19.186Z,34.77
2018-12-13T20:07:48.416Z,33.13
2018-12-13T20:10:17.562Z,33.77
2018-12-13T20:12:46.636Z,33.17
2018-12-13T20:15:15.754Z,30.63
2018-12-13T20:17:44.899Z,29.73
2018-12-13T20:20:14.298Z,29.53
2018-12-13T20:22:43.364Z,30.67
2018-12-13T20:25:12.468Z,30.93
2018-12-13T20:27:42.240Z,30.67
2018-12-13T20:30:11.707Z,32.23
2018-12-13T20:32:41.099Z,33.40
2018-12-13T20:35:11.326Z,35.37
2018-12-13T20:37:41.083Z,32.17
2018-12-13T20:40:10.146Z,32.03
2018-12-13T20:42:39.387Z,33.97
2018-12-13T20:45:09.543Z,34.80
2018-12-13T20:47:38.781Z,33.23
2018-12-13T20:50:08.449Z,35.97
2018-12-13T20:52:38.164Z,35.87
2018-12-13T20:55:07.734Z,31.27
2018-12-13T20:57:36.959Z,33.87
2018-12-13T21:00:08.858Z,35.57
2018-12-13T21:02:38.177Z,39.17
2018-12-13T21:05:07.549Z,34.07
2018-12-13T21:07:43.206Z,35.13
2018-12-13T21:10:12.364Z,37.80
2018-12-13T21:12:41.449Z,40.60
2018-12-13T21:15:10.715Z,39.00
2018-12-13T21:17:39.934Z,34.73
2018-12-13T21:20:09.115Z,35.30
2018-12-13T21:22:38.875Z,35.97
2018-12-13T21:25:08.186Z,35.00
2018-12-13T21:27:37.462Z,33.40
2018-12-13T21:30:07.162Z,33.30
2018-12-13T21:32:36.220Z,34.60
2018-12-13T21:35:06.050Z,34.73
2018-12-13T21:37:35.282Z,39.33
2018-12-13T21:40:06.569Z,36.00
2018-12-13T21:42:36.654Z,40.70
2018-12-13T21:45:06.030Z,38.20
2018-12-13T21:47:35.229Z,38.37
2018-12-13T21:50:04.883Z,33.10
2018-12-13T21:52:33.991Z,33.67
2018-12-13T21:55:03.358Z,35.77
2018-12-13T21:57:32.612Z,37.10
2018-12-13T22:00:01.849Z,38.37
2018-12-13T22:02:31.194Z,38.17
2018-12-13T22:05:00.338Z,39.00
2018-12-13T22:07:29.569Z,38.93
2018-12-13T22:09:58.808Z,42.90
2018-12-13T22:12:28.533Z,40.33
2018-12-13T22:15:02.477Z,41.07
2018-12-13T22:17:28.761Z,43.53
2018-12-13T22:19:58.020Z,42.03
2018-12-13T22:22:27.171Z,49.37
2018-12-13T22:24:56.510Z,48.23
2018-12-13T22:27:25.597Z,46.90
2018-12-13T22:29:54.750Z,44.13
2018-12-13T22:32:23.770Z,48.83
2018-12-13T22:34:53.589Z,48.27
2018-12-13T22:37:24.106Z,45.93
2018-12-13T22:39:53.754Z,48.67
2018-12-13T22:42:23.032Z,52.33
2018-12-13T22:44:53.223Z,47.10
2018-12-13T22:47:22.302Z,50.73
2018-12-13T22:49:52.147Z,49.00
2018-12-13T22:52:21.263Z,49.37
2018-12-13T22:54:51.284Z,49.33
2018-12-13T22:57:20.556Z,45.33
2018-12-13T22:59:49.756Z,46.63
2018-12-13T23:02:19.086Z,46.50
2018-12-13T23:04:48.161Z,48.30
2018-12-13T23:07:17.325Z,46.13
2018-12-13T23:09:46.390Z,49.30
2018-12-13T23:12:18.642Z,42.33
2018-12-13T23:14:47.957Z,48.97
2018-12-13T23:17:17.219Z,45.43
2018-12-13T23:19:47.105Z,47.70
2018-12-13T23:22:16.332Z,46.57
2018-12-13T23:24:45.912Z,49.83
2018-12-13T23:27:14.963Z,46.47
2018-12-13T23:29:44.054Z,51.00
2018-12-13T23:32:13.177Z,45.57
2018-12-13T23:34:42.485Z,48.20
2018-12-13T23:37:11.577Z,45.83
2018-12-13T23:39:40.642Z,43.60
2018-12-13T23:42:09.699Z,44.60
2018-12-13T23:44:38.815Z,48.73
2018-12-13T23:47:07.952Z,48.47
2018-12-13T23:49:37.363Z,41.83
2018-12-13T23:52:06.445Z,47.63
2018-12-13T23:54:35.655Z,45.30
2018-12-13T23:57:04.730Z,46.50
2018-12-13T23:59:34.052Z,45.00
